createdAt,value
2023-12-13T00:00:06.604Z,26.38
2023-12-13T00:02:08.403Z,26.40
2023-12-13T00:04:10.035Z,26.41
2023-12-13T00:06:11.599Z,26.39
2023-12-13T00:08:14.372Z,26.40
2023-12-13T00:10:16.003Z,26.40
2023-12-13T00:12:18.757Z,26.40
2023-12-13T00:14:22.017Z,26.42
2023-12-13T00:16:24.566Z,26.43
2023-12-13T00:18:26.247Z,26.46
2023-12-13T00:20:28.165Z,26.47
2023-12-13T00:22:29.770Z,26.48
2023-12-13T00:24:31.391Z,26.48
2023-12-13T00:26:32.923Z,26.47
2023-12-13T00:28:34.945Z,26.46
2023-12-13T00:30:36.697Z,26.47
2023-12-13T00:32:39.019Z,26.46
2023-12-13T00:34:40.670Z,26.47
2023-12-13T00:36:42.376Z,26.47
2023-12-13T00:38:44.010Z,26.49
2023-12-13T00:40:46.324Z,26.52
2023-12-13T00:42:48.005Z,26.53
2023-12-13T00:44:50.334Z,26.55
2023-12-13T00:46:51.894Z,26.54
2023-12-13T00:48:53.697Z,26.56
2023-12-13T00:50:56.280Z,26.54
2023-12-13T00:52:57.885Z,26.53
2023-12-13T00:55:02.057Z,26.50
2023-12-13T00:57:03.966Z,26.51
2023-12-13T00:59:05.882Z,26.51
2023-12-13T01:01:07.910Z,26.53
2023-12-13T01:03:09.581Z,26.56
2023-12-13T01:05:11.619Z,26.58
2023-12-13T01:07:13.344Z,26.60
2023-12-13T01:09:14.932Z,26.60
2023-12-13T01:11:17.000Z,26.60
2023-12-13T01:13:18.635Z,26.60
2023-12-13T01:15:20.285Z,26.58
2023-12-13T01:17:22.132Z,26.58
2023-12-13T01:19:25.457Z,26.57
2023-12-13T01:21:29.796Z,26.57
2023-12-13T01:23:31.461Z,26.59
2023-12-13T01:25:33.091Z,26.61
2023-12-13T01:27:34.834Z,26.63
2023-12-13T01:29:36.589Z,26.64
2023-12-13T01:31:38.180Z,26.64
2023-12-13T01:33:40.980Z,26.64
2023-12-13T01:35:42.749Z,26.64
2023-12-13T01:37:44.379Z,26.63
2023-12-13T01:39:45.972Z,26.61
2023-12-13T01:41:47.777Z,26.60
2023-12-13T01:43:49.905Z,26.61
2023-12-13T01:45:56.053Z,26.63
2023-12-13T01:47:57.782Z,26.64
2023-12-13T01:49:59.584Z,26.65
2023-12-13T01:52:01.271Z,26.67
2023-12-13T01:54:05.092Z,26.68
2023-12-13T01:56:10.315Z,26.68
2023-12-13T01:58:12.970Z,26.67
2023-12-13T02:00:15.175Z,26.66
2023-12-13T02:02:16.697Z,26.64
2023-12-13T02:04:20.732Z,26.64
2023-12-13T02:06:22.492Z,26.64
2023-12-13T02:08:24.198Z,26.66
2023-12-13T02:10:25.835Z,26.67
2023-12-13T02:12:27.812Z,26.69
2023-12-13T02:14:29.712Z,26.71
2023-12-13T02:16:33.673Z,26.74
2023-12-13T02:18:35.558Z,26.72
2023-12-13T02:20:37.189Z,26.73
2023-12-13T02:22:38.828Z,26.72
2023-12-13T02:24:43.815Z,26.69
2023-12-13T02:26:46.372Z,26.68
2023-12-13T02:28:49.167Z,26.68
2023-12-13T02:30:52.126Z,26.68
2023-12-13T02:32:53.765Z,26.69
2023-12-13T02:34:56.079Z,26.70
2023-12-13T02:36:57.987Z,26.73
2023-12-13T02:38:59.554Z,26.76
2023-12-13T02:41:01.240Z,26.76
2023-12-13T02:43:03.029Z,26.75
2023-12-13T02:45:05.044Z,26.76
2023-12-13T02:47:06.705Z,26.75
2023-12-13T02:49:08.386Z,26.73
2023-12-13T02:53:16.743Z,26.73
2023-12-13T02:55:18.606Z,26.72
2023-12-13T02:57:20.182Z,26.74
2023-12-13T02:59:21.834Z,26.75
2023-12-13T03:01:23.549Z,26.76
2023-12-13T03:07:41.726Z,26.79
2023-12-13T03:09:43.441Z,26.78
2023-12-13T03:11:45.048Z,26.77
2023-12-13T03:13:46.810Z,26.75
2023-12-13T03:15:48.373Z,26.74
2023-12-13T03:17:50.075Z,26.74
2023-12-13T03:19:51.750Z,26.74
2023-12-13T03:21:53.362Z,26.77
2023-12-13T03:23:56.776Z,26.78
2023-12-13T03:25:59.824Z,26.80
2023-12-13T03:30:09.977Z,26.81
2023-12-13T03:32:11.596Z,26.80
2023-12-13T03:34:15.397Z,26.78
2023-12-13T03:36:17.721Z,26.77
2023-12-13T03:38:19.623Z,26.77
2023-12-13T03:40:21.295Z,26.74
2023-12-13T03:42:22.930Z,26.74
2023-12-13T03:44:24.509Z,26.76
2023-12-13T03:46:26.268Z,26.79
2023-12-13T03:48:28.352Z,26.79
2023-12-13T03:50:29.965Z,26.81
2023-12-13T03:56:44.458Z,26.82
2023-12-13T03:58:46.245Z,26.80
2023-12-13T04:00:47.898Z,26.79
2023-12-13T04:02:49.478Z,26.78
2023-12-13T04:04:51.754Z,26.77
2023-12-13T04:06:53.353Z,26.77
2023-12-13T04:08:55.183Z,26.78
2023-12-13T04:10:56.837Z,26.80
2023-12-13T04:12:58.486Z,26.81
2023-12-13T04:15:00.147Z,26.82
2023-12-13T04:17:01.834Z,26.83
2023-12-13T04:19:03.514Z,26.84
2023-12-13T04:21:05.472Z,26.83
2023-12-13T04:23:07.043Z,26.83
2023-12-13T04:25:09.144Z,26.82
2023-12-13T04:27:10.990Z,26.82
2023-12-13T04:29:12.762Z,26.80
2023-12-13T04:31:14.406Z,26.81
2023-12-13T04:33:20.020Z,26.80
2023-12-13T04:35:21.865Z,26.82
2023-12-13T04:37:23.626Z,26.83
2023-12-13T04:39:25.362Z,26.87
2023-12-13T04:41:26.966Z,26.87
2023-12-13T04:43:28.488Z,26.86
2023-12-13T04:45:30.174Z,26.84
2023-12-13T04:47:32.034Z,26.85
2023-12-13T04:49:33.901Z,26.85
2023-12-13T04:51:35.516Z,26.82
2023-12-13T04:53:37.145Z,26.82
2023-12-13T04:55:38.753Z,26.82
2023-12-13T04:57:40.524Z,26.84
2023-12-13T04:59:42.120Z,26.86
2023-12-13T05:01:43.857Z,26.88
2023-12-13T05:07:48.587Z,26.90
2023-12-13T05:09:50.468Z,26.87
2023-12-13T05:11:52.083Z,26.85
2023-12-13T05:16:00.110Z,26.84
2023-12-13T05:18:01.758Z,26.85
2023-12-13T05:20:05.167Z,26.85
2023-12-13T05:22:07.653Z,26.86
2023-12-13T05:24:09.959Z,26.87
2023-12-13T05:26:11.638Z,26.91
2023-12-13T05:28:13.461Z,26.92
2023-12-13T05:30:15.062Z,26.93
2023-12-13T05:36:29.704Z,26.88
2023-12-13T05:38:31.343Z,26.86
2023-12-13T05:40:33.011Z,26.86
2023-12-13T05:42:35.088Z,26.87
2023-12-13T05:44:36.630Z,26.88
2023-12-13T05:46:38.299Z,26.88
2023-12-13T05:48:39.994Z,26.92
2023-12-13T05:50:41.659Z,26.93
2023-12-13T05:52:43.433Z,26.93
2023-12-13T05:54:45.505Z,26.92
2023-12-13T05:56:47.130Z,26.91
2023-12-13T05:58:48.836Z,26.91
2023-12-13T06:00:51.424Z,26.88
2023-12-13T06:02:55.897Z,26.88
2023-12-13T06:05:01.691Z,26.86
2023-12-13T06:07:03.913Z,26.86
2023-12-13T06:09:06.543Z,26.88
2023-12-13T06:11:08.501Z,26.91
2023-12-13T06:13:10.338Z,26.93
2023-12-13T06:15:11.968Z,26.96
2023-12-13T06:17:13.543Z,26.95
2023-12-13T06:19:15.241Z,26.94
2023-12-13T06:21:16.868Z,26.93
2023-12-13T06:23:18.702Z,26.91
2023-12-13T06:25:20.315Z,26.90
2023-12-13T06:27:21.940Z,26.88
2023-12-13T06:29:23.492Z,26.86
2023-12-13T06:31:25.579Z,26.88
2023-12-13T06:33:27.335Z,26.90
2023-12-13T06:35:29.051Z,26.93
2023-12-13T06:37:31.230Z,26.94
2023-12-13T06:39:33.085Z,26.94
2023-12-13T06:41:34.958Z,26.95
2023-12-13T06:43:36.553Z,26.94
2023-12-13T06:45:38.229Z,26.92
2023-12-13T06:47:40.057Z,26.88
2023-12-13T06:49:41.763Z,26.90
2023-12-13T06:51:43.463Z,26.87
2023-12-13T06:53:45.598Z,26.88
2023-12-13T06:55:47.882Z,26.89
2023-12-13T06:57:49.919Z,26.92
2023-12-13T06:59:51.593Z,26.93
2023-12-13T07:01:53.422Z,26.95
2023-12-13T07:03:58.691Z,26.96
2023-12-13T07:06:01.056Z,26.94
2023-12-13T07:08:02.771Z,26.94
2023-12-13T07:10:04.684Z,26.92
2023-12-13T07:12:06.966Z,26.91
2023-12-13T07:14:08.661Z,26.88
2023-12-13T07:16:10.616Z,26.87
2023-12-13T07:18:12.455Z,26.88
2023-12-13T07:20:14.384Z,26.91
2023-12-13T07:22:16.103Z,26.91
2023-12-13T07:24:17.679Z,26.94
2023-12-13T07:26:19.211Z,26.96
2023-12-13T07:28:20.840Z,26.95
2023-12-13T07:32:27.100Z,26.95
2023-12-13T07:34:28.765Z,26.92
2023-12-13T07:36:30.356Z,26.92
2023-12-13T07:38:32.057Z,26.92
2023-12-13T07:40:33.814Z,26.90
2023-12-13T07:42:36.005Z,26.92
2023-12-13T07:44:38.036Z,26.93
2023-12-13T07:46:39.938Z,26.96
2023-12-13T07:48:44.350Z,26.96
2023-12-13T07:50:46.177Z,26.97
2023-12-13T07:52:47.849Z,26.98
2023-12-13T07:54:49.748Z,26.98
2023-12-13T07:56:53.466Z,26.97
2023-12-13T07:58:58.492Z,26.95
2023-12-13T08:01:02.048Z,26.94
2023-12-13T08:03:05.449Z,26.94
2023-12-13T08:05:07.896Z,26.94
2023-12-13T08:07:09.536Z,26.95
2023-12-13T08:09:11.736Z,26.96
2023-12-13T08:11:13.758Z,26.98
2023-12-13T08:13:15.459Z,27.01
2023-12-13T08:15:17.178Z,27.01
2023-12-13T08:17:19.283Z,27.01
2023-12-13T08:19:21.038Z,27.00
2023-12-13T08:21:24.974Z,26.98
2023-12-13T08:23:26.653Z,26.99
2023-12-13T08:25:28.487Z,26.96
2023-12-13T08:27:30.243Z,26.97
2023-12-13T08:29:31.941Z,26.96
2023-12-13T08:31:33.700Z,26.97
2023-12-13T08:33:36.058Z,26.99
2023-12-13T08:35:37.799Z,27.01
2023-12-13T08:37:39.477Z,27.02
2023-12-13T08:39:42.062Z,27.03
2023-12-13T08:41:43.640Z,27.03
2023-12-13T08:43:45.647Z,27.03
2023-12-13T08:45:47.412Z,27.00
2023-12-13T08:47:49.165Z,26.96
2023-12-13T08:49:50.837Z,26.95
2023-12-13T08:51:52.417Z,26.95
2023-12-13T08:53:56.134Z,26.95
2023-12-13T08:55:58.107Z,26.96
2023-12-13T08:57:59.892Z,26.99
2023-12-13T09:00:08.911Z,27.01
2023-12-13T09:02:12.450Z,27.01
2023-12-13T09:04:14.166Z,27.01
2023-12-13T09:06:16.163Z,27.00
2023-12-13T09:08:17.834Z,26.99
2023-12-13T09:10:19.685Z,26.98
2023-12-13T09:12:21.647Z,26.96
2023-12-13T09:14:23.223Z,26.95
2023-12-13T09:16:24.790Z,26.94
2023-12-13T09:18:26.384Z,26.97
2023-12-13T09:20:28.123Z,26.97
2023-12-13T09:22:31.343Z,26.99
2023-12-13T09:24:33.071Z,27.00
2023-12-13T09:26:37.064Z,26.98
2023-12-13T09:28:38.749Z,26.99
2023-12-13T09:30:40.448Z,27.02
2023-12-13T09:32:43.913Z,27.01
2023-12-13T09:34:46.933Z,26.98
2023-12-13T09:36:48.619Z,26.94
2023-12-13T09:38:50.233Z,26.90
2023-12-13T09:40:52.617Z,26.91
2023-12-13T09:42:54.586Z,26.92
2023-12-13T09:44:56.762Z,26.93
2023-12-13T09:47:01.927Z,26.94
2023-12-13T09:49:06.000Z,26.94
2023-12-13T09:51:13.216Z,26.97
2023-12-13T09:53:15.995Z,26.97
2023-12-13T09:55:18.507Z,26.96
2023-12-13T09:57:20.229Z,26.94
2023-12-13T09:59:22.590Z,26.93
2023-12-13T10:01:24.308Z,26.92
2023-12-13T10:03:26.023Z,26.92
2023-12-13T10:05:29.778Z,26.92
2023-12-13T10:07:31.438Z,26.92
2023-12-13T10:09:33.781Z,26.94
2023-12-13T10:11:35.385Z,26.94
2023-12-13T10:13:36.919Z,26.94
2023-12-13T10:15:38.757Z,26.95
2023-12-13T10:17:42.399Z,26.95
2023-12-13T10:19:46.092Z,26.93
2023-12-13T10:21:49.812Z,26.93
2023-12-13T10:23:51.585Z,26.94
2023-12-13T10:25:53.590Z,26.94
2023-12-13T10:27:55.400Z,26.94
2023-12-13T10:29:56.982Z,26.95
2023-12-13T10:31:59.297Z,26.96
2023-12-13T10:34:01.150Z,27.00
2023-12-13T10:36:04.805Z,27.01
2023-12-13T10:38:07.835Z,27.01
2023-12-13T10:40:13.979Z,27.00
2023-12-13T10:42:18.329Z,26.99
2023-12-13T10:44:23.583Z,26.98
2023-12-13T10:46:34.298Z,26.98
2023-12-13T10:48:38.458Z,26.97
2023-12-13T10:50:40.501Z,26.97
2023-12-13T10:52:43.982Z,26.98
2023-12-13T10:54:47.311Z,26.97
2023-12-13T10:56:49.505Z,26.97
2023-12-13T10:58:53.509Z,26.97
2023-12-13T11:00:57.036Z,26.96
2023-12-13T11:03:07.909Z,26.97
2023-12-13T11:05:09.833Z,26.97
2023-12-13T11:07:15.597Z,26.96
2023-12-13T11:09:19.220Z,26.95
2023-12-13T11:11:28.408Z,26.94
2023-12-13T11:13:30.947Z,26.94
2023-12-13T11:15:32.860Z,26.95
2023-12-13T11:17:38.105Z,26.96
2023-12-13T11:19:42.220Z,26.94
2023-12-13T11:21:47.342Z,26.96
2023-12-13T11:23:49.149Z,26.96
2023-12-13T11:25:51.970Z,26.95
2023-12-13T11:27:56.644Z,26.92
2023-12-13T11:29:58.426Z,26.90
2023-12-13T11:32:06.983Z,26.85
2023-12-13T11:34:08.863Z,26.80
2023-12-13T11:36:12.234Z,26.75
2023-12-13T11:38:13.989Z,26.72
2023-12-13T11:40:15.713Z,26.66
2023-12-13T11:42:18.969Z,26.65
2023-12-13T11:44:20.493Z,26.60
2023-12-13T11:46:22.050Z,26.55
2023-12-13T11:48:24.205Z,26.49
2023-12-13T11:50:26.053Z,26.47
2023-12-13T11:52:27.646Z,26.42
2023-12-13T11:54:29.272Z,26.39
2023-12-13T11:56:30.851Z,26.38
2023-12-13T11:58:32.439Z,26.32
2023-12-13T12:00:34.096Z,26.23
2023-12-13T12:02:35.792Z,26.22
2023-12-13T12:04:37.753Z,26.19
2023-12-13T12:06:47.529Z,26.14
2023-12-13T12:08:49.827Z,26.13
2023-12-13T12:10:53.159Z,26.11
2023-12-13T12:12:54.771Z,26.09
2023-12-13T12:14:56.530Z,26.08
2023-12-13T12:17:00.708Z,26.08
2023-12-13T12:19:05.169Z,26.08
2023-12-13T12:21:11.875Z,26.09
2023-12-13T12:23:13.515Z,26.10
2023-12-13T12:25:15.732Z,26.09
2023-12-13T12:27:17.367Z,26.08
2023-12-13T12:29:19.235Z,26.11
2023-12-13T12:31:21.251Z,26.14
2023-12-13T12:33:23.335Z,26.15
2023-12-13T12:35:24.925Z,26.20
2023-12-13T12:37:27.060Z,26.18
2023-12-13T12:39:28.689Z,26.17
2023-12-13T12:41:35.130Z,26.18
2023-12-13T12:43:38.511Z,26.16
2023-12-13T12:45:40.273Z,26.19
2023-12-13T12:47:41.949Z,26.21
2023-12-13T12:49:44.058Z,26.21
2023-12-13T12:51:45.759Z,26.17
2023-12-13T12:53:47.362Z,26.16
2023-12-13T12:55:51.755Z,26.19
2023-12-13T12:57:53.459Z,26.17
2023-12-13T12:59:55.050Z,26.16
2023-12-13T13:01:57.036Z,26.15
2023-12-13T13:03:59.040Z,26.14
2023-12-13T13:06:01.568Z,26.16
2023-12-13T13:08:03.769Z,26.16
2023-12-13T13:10:06.415Z,26.16
2023-12-13T13:12:08.334Z,26.15
2023-12-13T13:14:10.259Z,26.14
2023-12-13T13:16:13.512Z,26.14
2023-12-13T13:18:15.482Z,26.15
2023-12-13T13:20:19.621Z,26.20
2023-12-13T13:22:25.295Z,26.23
2023-12-13T13:24:27.488Z,26.23
2023-12-13T13:26:29.113Z,26.22
2023-12-13T13:28:31.700Z,26.20
2023-12-13T13:30:33.636Z,26.16
2023-12-13T13:32:35.448Z,26.16
2023-12-13T13:34:37.092Z,26.18
2023-12-13T13:36:38.887Z,26.20
2023-12-13T13:38:40.524Z,26.22
2023-12-13T13:40:42.327Z,26.20
2023-12-13T13:42:44.114Z,26.19
2023-12-13T13:44:46.142Z,26.16
2023-12-13T13:46:51.923Z,26.21
2023-12-13T13:48:55.512Z,26.23
2023-12-13T13:50:58.062Z,26.24
2023-12-13T13:53:01.351Z,26.24
2023-12-13T13:55:03.471Z,26.20
2023-12-13T13:57:05.746Z,26.18
2023-12-13T13:59:07.628Z,26.20
2023-12-13T14:01:10.078Z,26.22
2023-12-13T14:03:12.778Z,26.22
2023-12-13T14:05:14.711Z,26.21
2023-12-13T14:07:16.348Z,26.22
2023-12-13T14:09:17.936Z,26.23
2023-12-13T14:11:19.998Z,26.22
2023-12-13T14:13:23.280Z,26.16
2023-12-13T14:15:24.979Z,26.13
2023-12-13T14:17:27.325Z,26.15
2023-12-13T14:19:29.218Z,26.14
2023-12-13T14:21:31.013Z,26.13
2023-12-13T14:23:33.407Z,26.15
2023-12-13T14:25:36.243Z,26.16
2023-12-13T14:27:37.964Z,26.08
2023-12-13T14:29:39.614Z,26.07
2023-12-13T14:31:41.721Z,26.05
2023-12-13T14:33:43.420Z,26.06
2023-12-13T14:35:46.385Z,26.06
2023-12-13T14:37:48.021Z,26.05
2023-12-13T14:39:49.820Z,26.01
2023-12-13T14:41:52.109Z,26.01
2023-12-13T14:43:53.740Z,26.00
2023-12-13T14:45:55.334Z,26.02
2023-12-13T14:47:57.727Z,26.03
2023-12-13T14:49:59.369Z,26.03
2023-12-13T14:52:00.993Z,26.04
2023-12-13T14:54:02.695Z,26.00
2023-12-13T14:56:04.678Z,26.02
2023-12-13T14:58:06.318Z,26.02
2023-12-13T15:00:15.381Z,26.00
2023-12-13T15:02:17.248Z,25.97
2023-12-13T15:04:18.970Z,25.97
2023-12-13T15:06:20.987Z,25.98
2023-12-13T15:08:23.670Z,26.03
2023-12-13T15:10:25.420Z,26.04
2023-12-13T15:12:26.936Z,26.02
2023-12-13T15:14:30.996Z,26.04
2023-12-13T15:16:33.130Z,26.04
2023-12-13T15:18:34.931Z,26.05
2023-12-13T15:20:36.538Z,26.05
2023-12-13T15:22:38.436Z,26.08
2023-12-13T15:24:43.924Z,26.07
2023-12-13T15:26:45.768Z,26.09
2023-12-13T15:28:47.619Z,26.12
2023-12-13T15:30:49.269Z,26.14
2023-12-13T15:32:50.989Z,26.13
2023-12-13T15:34:53.053Z,26.12
2023-12-13T15:36:54.737Z,26.12
2023-12-13T15:38:56.382Z,26.13
2023-12-13T15:40:58.243Z,26.11
2023-12-13T15:42:59.943Z,26.08
2023-12-13T15:45:01.626Z,26.12
2023-12-13T15:47:04.716Z,26.15
2023-12-13T15:49:06.397Z,26.16
2023-12-13T15:51:08.004Z,26.14
2023-12-13T15:53:09.713Z,26.16
2023-12-13T15:55:12.471Z,26.17
2023-12-13T15:57:14.019Z,26.17
2023-12-13T15:59:15.754Z,26.21
2023-12-13T16:01:17.485Z,26.21
2023-12-13T16:03:19.171Z,26.14
2023-12-13T16:05:21.170Z,26.13
2023-12-13T16:07:22.914Z,26.10
2023-12-13T16:09:24.555Z,26.08
2023-12-13T16:11:26.418Z,26.06
2023-12-13T16:13:29.144Z,26.05
2023-12-13T16:15:30.820Z,26.07
2023-12-13T16:17:32.677Z,26.06
2023-12-13T16:19:34.507Z,26.04
2023-12-13T16:21:36.131Z,26.02
2023-12-13T16:23:37.821Z,26.02
2023-12-13T16:25:39.525Z,26.04
2023-12-13T16:27:41.205Z,26.05
2023-12-13T16:29:44.278Z,26.01
2023-12-13T16:31:46.079Z,26.03
2023-12-13T16:33:47.743Z,26.02
2023-12-13T16:35:49.350Z,25.98
2023-12-13T16:37:50.915Z,25.97
2023-12-13T16:39:52.740Z,26.03
2023-12-13T16:41:57.769Z,25.99
2023-12-13T16:44:03.053Z,25.99
2023-12-13T16:46:05.169Z,25.97
2023-12-13T16:48:06.928Z,25.95
2023-12-13T16:50:09.213Z,25.91
2023-12-13T16:52:10.852Z,25.92
2023-12-13T16:54:12.371Z,25.90
2023-12-13T16:56:14.925Z,25.88
2023-12-13T16:58:16.615Z,25.87
2023-12-13T17:00:19.011Z,25.84
2023-12-13T17:02:42.180Z,25.84
2023-12-13T17:04:42.439Z,25.79
2023-12-13T17:06:44.111Z,25.77
2023-12-13T17:08:46.021Z,25.75
2023-12-13T17:10:47.530Z,25.71
2023-12-13T17:12:49.155Z,25.65
2023-12-13T17:14:50.718Z,25.63
2023-12-13T17:16:53.204Z,25.61
2023-12-13T17:18:54.831Z,25.56
2023-12-13T17:20:57.831Z,25.55
2023-12-13T17:22:59.463Z,25.53
2023-12-13T17:25:01.182Z,25.54
2023-12-13T17:27:02.990Z,25.51
2023-12-13T17:29:08.454Z,25.51
2023-12-13T17:31:10.228Z,25.50
2023-12-13T17:33:11.893Z,25.52
2023-12-13T17:35:13.634Z,25.53
2023-12-13T17:37:15.320Z,25.52
2023-12-13T17:39:16.986Z,25.52
2023-12-13T17:41:18.951Z,25.51
2023-12-13T17:43:20.514Z,25.54
2023-12-13T17:45:22.107Z,25.56
2023-12-13T17:47:25.598Z,25.57
2023-12-13T17:49:27.534Z,25.56
2023-12-13T17:51:29.191Z,25.61
2023-12-13T17:53:36.661Z,25.64
2023-12-13T17:55:38.298Z,25.62
2023-12-13T17:57:40.238Z,25.64
2023-12-13T17:59:42.986Z,25.61
2023-12-13T18:01:45.939Z,25.58
2023-12-13T18:03:48.009Z,25.55
2023-12-13T18:05:49.674Z,25.55
2023-12-13T18:07:52.024Z,25.49
2023-12-13T18:09:53.767Z,25.45
2023-12-13T18:11:55.399Z,25.45
2023-12-13T18:13:57.161Z,25.45
2023-12-13T18:15:58.873Z,25.41
2023-12-13T18:18:02.684Z,25.42
2023-12-13T18:20:04.923Z,25.43
2023-12-13T18:22:06.605Z,25.44
2023-12-13T18:24:08.256Z,25.44
2023-12-13T18:26:09.793Z,25.44
2023-12-13T18:28:11.413Z,25.45
2023-12-13T18:30:13.485Z,25.48
2023-12-13T18:32:15.225Z,25.49
2023-12-13T18:34:17.058Z,25.52
2023-12-13T18:36:18.700Z,25.55
2023-12-13T18:38:20.573Z,25.53
2023-12-13T18:40:22.383Z,25.53
2023-12-13T18:42:23.928Z,25.55
2023-12-13T18:44:25.531Z,25.58
2023-12-13T18:46:27.215Z,25.60
2023-12-13T18:48:29.017Z,25.62
2023-12-13T18:50:30.787Z,25.60
2023-12-13T18:52:32.619Z,25.59
2023-12-13T18:54:34.430Z,25.59
2023-12-13T18:56:36.021Z,25.60
2023-12-13T18:58:37.733Z,25.61
2023-12-13T19:00:39.514Z,25.61
2023-12-13T19:02:41.276Z,25.61
2023-12-13T19:04:42.906Z,25.64
2023-12-13T19:06:44.544Z,25.67
2023-12-13T19:08:46.146Z,25.69
2023-12-13T19:10:47.701Z,25.70
2023-12-13T19:12:49.454Z,25.69
2023-12-13T19:14:51.164Z,25.68
2023-12-13T19:16:52.810Z,25.66
2023-12-13T19:18:54.452Z,25.68
2023-12-13T19:20:57.614Z,25.68
2023-12-13T19:22:59.384Z,25.67
2023-12-13T19:25:00.936Z,25.68
2023-12-13T19:27:02.744Z,25.71
2023-12-13T19:29:05.565Z,25.74
2023-12-13T19:31:07.236Z,25.77
2023-12-13T19:33:08.988Z,25.78
2023-12-13T19:35:10.659Z,25.79
2023-12-13T19:37:12.425Z,25.81
2023-12-13T19:39:14.049Z,25.82
2023-12-13T19:41:15.559Z,25.81
2023-12-13T19:43:17.187Z,25.85
2023-12-13T19:45:18.769Z,25.86
2023-12-13T19:47:20.392Z,25.88
2023-12-13T19:49:22.546Z,25.92
2023-12-13T19:51:24.590Z,25.93
2023-12-13T19:53:26.206Z,25.93
2023-12-13T19:55:27.830Z,25.97
2023-12-13T19:57:29.451Z,25.98
2023-12-13T19:59:31.020Z,26.01
2023-12-13T20:01:33.186Z,26.02
2023-12-13T20:03:34.773Z,26.01
2023-12-13T20:05:36.575Z,26.00
2023-12-13T20:07:38.588Z,26.02
2023-12-13T20:09:40.246Z,26.02
2023-12-13T20:11:41.890Z,26.04
2023-12-13T20:13:50.282Z,26.06
2023-12-13T20:15:57.696Z,26.07
2023-12-13T20:17:59.384Z,26.09
2023-12-13T20:20:01.183Z,26.09
2023-12-13T20:22:02.919Z,26.09
2023-12-13T20:24:04.775Z,26.08
2023-12-13T20:26:06.743Z,26.07
2023-12-13T20:28:08.402Z,26.06
2023-12-13T20:30:11.349Z,26.06
2023-12-13T20:32:14.327Z,26.06
2023-12-13T20:34:16.694Z,26.09
2023-12-13T20:36:18.419Z,26.11
2023-12-13T20:38:22.898Z,26.13
2023-12-13T20:40:24.633Z,26.14
2023-12-13T20:42:27.689Z,26.13
2023-12-13T20:44:29.262Z,26.11
2023-12-13T20:46:30.971Z,26.11
2023-12-13T20:48:32.612Z,26.09
2023-12-13T20:50:34.744Z,26.07
2023-12-13T20:52:36.474Z,26.06
2023-12-13T20:54:39.068Z,26.06
2023-12-13T20:56:40.751Z,26.08
2023-12-13T20:58:42.326Z,26.10
2023-12-13T21:00:43.987Z,26.11
2023-12-13T21:02:45.847Z,26.15
2023-12-13T21:04:47.484Z,26.16
2023-12-13T21:06:49.156Z,26.17
2023-12-13T21:08:50.868Z,26.16
2023-12-13T21:10:52.520Z,26.16
2023-12-13T21:12:55.505Z,26.14
2023-12-13T21:14:57.134Z,26.14
2023-12-13T21:16:58.932Z,26.15
2023-12-13T21:19:00.949Z,26.16
2023-12-13T21:21:02.723Z,26.20
2023-12-13T21:23:04.392Z,26.23
2023-12-13T21:25:06.504Z,26.24
2023-12-13T21:27:08.222Z,26.23
2023-12-13T21:29:10.340Z,26.22
2023-12-13T21:31:12.206Z,26.22
2023-12-13T21:33:14.432Z,26.22
2023-12-13T21:35:16.194Z,26.21
2023-12-13T21:37:17.915Z,26.19
2023-12-13T21:39:19.539Z,26.18
2023-12-13T21:41:23.478Z,26.21
2023-12-13T21:43:26.826Z,26.23
2023-12-13T21:45:28.723Z,26.25
2023-12-13T21:47:32.412Z,26.25
2023-12-13T21:49:34.120Z,26.26
2023-12-13T21:51:35.770Z,26.26
2023-12-13T21:53:37.577Z,26.27
2023-12-13T21:55:39.382Z,26.26
2023-12-13T21:57:41.023Z,26.23
2023-12-13T21:59:42.673Z,26.23
2023-12-13T22:01:44.375Z,26.20
2023-12-13T22:03:50.389Z,26.22
2023-12-13T22:05:52.029Z,26.24
2023-12-13T22:07:53.697Z,26.26
2023-12-13T22:09:56.124Z,26.30
2023-12-13T22:11:57.649Z,26.32
2023-12-13T22:13:59.415Z,26.30
2023-12-13T22:16:02.397Z,26.31
2023-12-13T22:18:06.513Z,26.31
2023-12-13T22:20:17.875Z,26.28
2023-12-13T22:22:19.938Z,26.26
2023-12-13T22:24:21.507Z,26.25
2023-12-13T22:26:23.069Z,26.27
2023-12-13T22:28:24.707Z,26.29
2023-12-13T22:30:26.386Z,26.30
2023-12-13T22:32:28.039Z,26.32
2023-12-13T22:34:29.819Z,26.33
2023-12-13T22:36:31.410Z,26.35
2023-12-13T22:38:33.147Z,26.35
2023-12-13T22:40:34.812Z,26.35
2023-12-13T22:42:36.602Z,26.33
2023-12-13T22:44:39.478Z,26.31
2023-12-13T22:46:41.087Z,26.28
2023-12-13T22:48:42.703Z,26.29
2023-12-13T22:50:44.585Z,26.33
2023-12-13T22:52:46.418Z,26.35
2023-12-13T22:54:47.978Z,26.38
2023-12-13T22:56:49.634Z,26.35
2023-12-13T22:58:51.289Z,26.38
2023-12-13T23:00:53.181Z,26.38
2023-12-13T23:02:56.675Z,26.37
2023-12-13T23:04:58.449Z,26.36
2023-12-13T23:07:00.030Z,26.35
2023-12-13T23:09:02.590Z,26.33
2023-12-13T23:11:04.873Z,26.33
2023-12-13T23:13:06.583Z,26.33
2023-12-13T23:15:09.217Z,26.38
2023-12-13T23:17:11.052Z,26.40
2023-12-13T23:19:12.923Z,26.42
2023-12-13T23:21:14.598Z,26.41
2023-12-13T23:23:18.478Z,26.42
2023-12-13T23:25:20.096Z,26.42
2023-12-13T23:27:21.873Z,26.39
2023-12-13T23:29:23.502Z,26.38
2023-12-13T23:31:33.081Z,26.36
2023-12-13T23:33:38.905Z,26.35
2023-12-13T23:35:40.536Z,26.38
2023-12-13T23:37:42.135Z,26.41
2023-12-13T23:39:43.877Z,26.44
2023-12-13T23:41:45.408Z,26.45
2023-12-13T23:43:47.009Z,26.44
2023-12-13T23:45:48.672Z,26.43
2023-12-13T23:47:50.381Z,26.43
2023-12-13T23:49:52.118Z,26.42
2023-12-13T23:51:53.715Z,26.41
2023-12-13T23:53:55.633Z,26.41
2023-12-13T23:55:57.241Z,26.40
2023-12-13T23:57:58.943Z,26.40
